Time;durP1;ratioP1;P1;durP2;ratioP2;P2;SDS_P1;SDS_P2;PMS_P1;PMS_P2;Temp;Humidity;BMP_temperature;BMP_pressure;BME280_temperature;BME280_humidity;BME280_pressure;Samples;Min_cycle;Max_cycle;Signal;HPM_P1;HPM_P2
2023/11/29 09:06:00;;;;;;;5.43;3.80;;;;;;;-1.62;91.70;95579.38;2106629;27;20577;-65
2023/11/29 09:07:04;;;;;;;7.60;4.45;;;;;;;-1.37;91.90;95599.50;2085625;28;20972;-65
2023/11/29 09:08:07;;;;;;;10.98;5.35;;;;;;;-1.25;91.71;95601.88;2082044;28;20217;-65
2023/11/29 09:09:09;;;;;;;8.25;5.07;;;;;;;-1.20;90.29;95596.69;2081385;28;20313;-65
2023/11/29 09:10:12;;;;;;;8.02;5.05;;;;;;;-1.12;90.06;95594.00;2082443;28;20201;-65
2023/11/29 09:11:13;;;;;;;8.32;4.55;;;;;;;-0.93;90.26;95595.41;2078353;28;20646;-65
2023/11/29 09:12:18;;;;;;;7.47;4.35;;;;;;;0.08;86.93;95601.31;2079948;28;20222;-64
2023/11/29 09:13:19;;;;;;;5.10;3.53;;;;;;;1.43;82.67;95589.66;2090250;28;20205;-64
2023/11/29 09:14:21;;;;;;;7.28;4.35;;;;;;;1.43;82.67;95589.66;2106380;28;20638;-65
2023/11/29 09:15:22;;;;;;;5.95;3.88;;;;;;;2.96;75.32;95587.09;2103971;28;20229;-65
2023/11/29 09:16:24;;;;;;;6.65;4.00;;;;;;;2.67;74.76;95578.50;2088087;28;20196;-64
2023/11/29 09:17:25;;;;;;;6.47;3.67;;;;;;;3.48;73.74;95583.69;2086232;28;20239;-64
2023/11/29 09:18:27;;;;;;;5.53;3.70;;;;;;;2.53;74.23;95588.41;2086964;28;20204;-64
2023/11/29 09:19:29;;;;;;;9.90;3.65;;;;;;;1.48;76.64;95588.72;2089466;28;20216;-65
2023/11/29 09:20:30;;;;;;;7.40;3.33;;;;;;;0.73;79.38;95579.38;2086547;28;20192;-65
2023/11/29 09:21:35;;;;;;;5.22;3.47;;;;;;;0.38;81.12;95589.56;2086753;28;20246;-64
2023/11/29 09:22:37;;;;;;;5.88;3.85;;;;;;;0.19;82.77;95585.66;2089996;28;20199;-64
2023/11/29 09:23:39;;;;;;;4.40;3.17;;;;;;;-0.02;83.54;95573.22;2090246;28;20203;-64
2023/11/29 09:24:40;;;;;;;6.07;3.90;;;;;;;0.24;84.25;95576.16;2090076;28;20235;-64
2023/11/29 09:25:42;;;;;;;5.85;3.67;;;;;;;0.17;85.12;95579.75;2089977;28;20212;-64
2023/11/29 09:26:43;;;;;;;4.65;3.63;;;;;;;0.05;84.30;95578.25;2091545;28;20215;-65
2023/11/29 09:27:45;;;;;;;4.85;3.28;;;;;;;-0.12;84.63;95581.16;2093232;28;20195;-65
2023/11/29 09:28:47;;;;;;;5.15;3.22;;;;;;;-0.31;84.11;95589.19;2087921;28;20203;-64
2023/11/29 09:29:49;;;;;;;4.80;3.08;;;;;;;-0.59;85.25;95571.75;2087465;28;20192;-64
2023/11/29 09:30:51;;;;;;;5.97;4.05;;;;;;;-0.58;86.32;95580.31;2104484;28;20579;-64
2023/11/29 09:31:52;;;;;;;7.57;4.35;;;;;;;-0.66;86.44;95594.09;2103910;28;20222;-64
2023/11/29 09:52:48;;;;;;;7.55;3.60;;;;;;;-1.16;91.48;95585.53;2103391;27;20553;-64
2023/11/29 09:55:36;;;;;;;4.40;3.10;;;;;;;-1.16;90.40;95588.09;2082996;28;20567;-64
2023/11/29 09:58:47;;;;;;;9.70;4.65;;;;;;;-1.21;90.47;95566.81;2109931;27;20575;-62
2023/11/29 10:01:53;;;;;;;5.57;3.75;;;;;;;-1.01;90.64;95579.31;2078339;28;20582;-64
2023/11/29 10:02:54;;;;;;;7.50;4.40;;;;;;;-0.89;90.18;95594.50;2075222;28;20190;-64
2023/11/29 10:06:40;;;;;;;6.85;3.75;;;;;;;-0.92;91.08;95591.13;2096870;27;20684;-64
2023/11/29 10:15:00;;;;;;;5.35;3.45;;;;;;;-0.88;91.00;95592.78;2083370;27;20553;-64
2023/11/29 10:16:10;;;;;;;5.95;3.63;;;;;;;-0.83;91.16;95585.84;2077443;28;20248;-64
2023/11/29 10:19:04;;;;;;;5.00;2.65;;;;;;;-0.78;88.83;95581.50;2084191;28;20553;-64
2023/11/29 10:20:07;;;;;;;6.10;3.50;;;;;;;-0.83;89.46;95561.06;2081463;28;20199;-64
2023/11/29 10:21:11;;;;;;;5.07;3.80;;;;;;;-0.73;89.16;95569.44;2083014;28;20255;-64
2023/11/29 10:22:16;;;;;;;7.25;3.75;;;;;;;-0.55;89.42;95575.94;2083899;28;20238;-64
2023/11/29 10:23:17;;;;;;;5.40;3.90;;;;;;;-0.53;88.97;95579.34;2083221;28;20252;-64
2023/11/29 10:24:26;;;;;;;5.20;3.53;;;;;;;-0.45;88.35;95573.22;2080781;28;20302;-64
2023/11/29 10:25:29;;;;;;;5.40;3.60;;;;;;;-0.39;87.47;95568.81;2082232;28;20191;-65
2023/11/29 10:26:30;;;;;;;4.82;3.10;;;;;;;-0.37;88.31;95556.81;2080745;28;20220;-64
2023/11/29 10:27:32;;;;;;;5.00;2.92;;;;;;;-0.35;87.06;95562.75;2081877;28;20288;-65
2023/11/29 10:28:34;;;;;;;7.22;4.40;;;;;;;-0.32;87.27;95561.84;2081719;28;20221;-63
2023/11/29 10:29:37;;;;;;;4.35;3.05;;;;;;;-0.25;87.02;95560.88;2082054;28;20235;-63
2023/11/29 10:30:39;;;;;;;5.63;3.67;;;;;;;-0.24;87.10;95560.00;2080083;28;20211;-63
2023/11/29 10:31:42;;;;;;;9.45;4.32;;;;;;;-0.12;87.03;95560.63;2094590;28;20216;-62
2023/11/29 10:32:44;;;;;;;5.60;3.25;;;;;;;-0.09;86.94;95569.13;2089696;28;20200;-63
2023/11/29 10:33:49;;;;;;;6.07;3.30;;;;;;;-0.04;86.85;95558.75;2084163;28;20679;-63
2023/11/29 10:34:52;;;;;;;6.13;2.70;;;;;;;0.00;86.43;95562.97;2082786;28;20262;-63
2023/11/29 10:35:54;;;;;;;5.63;2.95;;;;;;;0.03;86.52;95544.09;2082122;28;20204;-63
2023/11/29 10:36:57;;;;;;;4.28;3.00;;;;;;;0.14;85.95;95550.66;2079513;28;20859;-64
2023/11/29 10:38:11;;;;;;;3.97;2.38;;;;;;;0.21;85.11;95569.34;2081832;28;20197;-64
2023/11/29 10:39:16;;;;;;;4.80;3.15;;;;;;;0.09;84.47;95547.34;2079942;28;20195;-63
2023/11/29 10:40:18;;;;;;;4.88;3.22;;;;;;;0.03;84.93;95542.34;2080751;28;20189;-63
2023/11/29 10:41:23;;;;;;;3.30;2.05;;;;;;;0.11;85.10;95562.72;2078212;28;20208;-63
2023/11/29 10:42:24;;;;;;;7.20;2.40;;;;;;;-0.12;85.17;95522.13;2078793;28;20197;-64
2023/11/29 10:43:29;;;;;;;6.55;3.25;;;;;;;0.08;85.58;95553.38;2082006;28;20204;-63
2023/11/29 10:44:35;;;;;;;6.45;3.67;;;;;;;0.11;86.23;95549.88;2080299;28;20594;-63
2023/11/29 10:45:41;;;;;;;6.38;3.42;;;;;;;0.22;85.98;95545.38;2078490;28;20335;-63
2023/11/29 10:46:43;;;;;;;4.72;3.08;;;;;;;0.21;86.07;95545.41;2078046;28;20212;-64
2023/11/29 10:47:57;;;;;;;4.43;3.22;;;;;;;0.50;84.72;95561.91;2081890;28;20195;-63
2023/11/29 10:49:10;;;;;;;5.05;2.92;;;;;;;0.51;84.51;95550.72;2080617;28;20256;-64
2023/11/29 10:50:14;;;;;;;3.83;2.20;;;;;;;1.60;81.85;95535.19;2080618;28;20534;-64
2023/11/29 10:51:18;;;;;;;5.65;3.08;;;;;;;-145.49;100.00;55703.94;2082967;28;20229;-64
2023/11/29 10:52:20;;;;;;;4.07;2.40;;;;;;;-145.49;100.00;55703.94;2082438;28;20228;-64
2023/11/29 10:53:22;;;;;;;3.95;2.50;;;;;;;-145.49;100.00;55703.94;2081870;28;20322;-64
2023/11/29 10:54:24;;;;;;;4.28;2.70;;;;;;;-145.49;100.00;55703.94;2082160;28;20659;-64
2023/11/29 10:55:43;;;;;;;3.22;2.05;;;;;;;-145.49;100.00;55703.94;2081914;28;20522;-65
2023/11/29 10:56:45;;;;;;;3.33;2.38;;;;;;;-145.49;100.00;55703.94;2081266;28;20241;-64
2023/11/29 10:57:59;;;;;;;2.95;2.20;;;;;;;-145.49;100.00;55703.94;2082115;28;20271;-64
2023/11/29 10:59:24;;;;;;;4.35;2.50;;;;;;;-145.49;100.00;55703.94;2082025;28;20217;-64
2023/11/29 11:00:28;;;;;;;3.90;2.17;;;;;;;-145.49;100.00;55703.94;2080086;28;20276;-64
2023/11/29 11:01:34;;;;;;;7.53;2.42;;;;;;;-145.49;100.00;55703.94;2080278;28;20207;-64
2023/11/29 11:02:36;;;;;;;3.63;1.88;;;;;;;-145.49;100.00;55703.94;2081195;28;20208;-64
2023/11/29 11:03:47;;;;;;;3.65;2.28;;;;;;;-145.49;100.00;55703.94;2082636;28;20216;-65
2023/11/29 11:05:05;;;;;;;3.40;2.17;;;;;;;-145.49;100.00;55703.94;2082316;28;20280;-65
2023/11/29 11:06:21;;;;;;;4.03;2.45;;;;;;;-145.49;100.00;55703.94;2079970;28;20650;-65
2023/11/29 11:07:41;;;;;;;5.40;2.38;;;;;;;-145.49;100.00;55703.94;2081813;28;20626;-65
2023/11/29 11:08:43;;;;;;;4.07;2.45;;;;;;;-145.49;100.00;55703.94;2078120;28;20198;-65
2023/11/29 11:09:44;;;;;;;3.60;2.70;;;;;;;-145.49;100.00;55703.94;2078238;28;20208;-66
2023/11/29 11:10:46;;;;;;;4.47;2.08;;;;;;;-145.49;100.00;55703.94;2081521;28;20327;-66
2023/11/29 11:11:49;;;;;;;2.95;1.75;;;;;;;-145.49;100.00;55703.94;2082483;28;20340;-65
2023/11/29 11:12:52;;;;;;;2.42;1.80;;;;;;;-145.49;100.00;55703.94;2082224;28;20197;-65
2023/11/29 11:13:55;;;;;;;2.20;1.50;;;;;;;-145.49;100.00;55703.94;2081795;28;20197;-66
2023/11/29 11:15:01;;;;;;;5.00;2.55;;;;;;;-145.49;100.00;55703.94;2097549;28;20282;-66
2023/11/29 11:16:02;;;;;;;3.03;2.10;;;;;;;1.60;81.85;95535.19;2095736;28;20199;-65
2023/11/29 11:18:42;;;;;;;3.97;1.85;;;;;;;5.92;65.87;95516.53;2080944;28;20237;-65
2023/11/29 11:19:45;;;;;;;3.90;2.05;;;;;;;5.95;64.03;95490.50;2080174;28;20288;-66
2023/11/29 11:20:59;;;;;;;2.30;1.63;;;;;;;5.45;64.49;95517.72;2078348;28;20209;-66
2023/11/29 11:22:04;;;;;;;3.13;1.80;;;;;;;4.01;68.24;95500.91;2079256;28;20289;-66
2023/11/29 11:23:05;;;;;;;2.95;1.85;;;;;;;3.85;70.21;95516.13;2080760;28;20284;-66
2023/11/29 11:24:07;;;;;;;4.50;2.03;;;;;;;2.98;71.90;95523.38;2082475;28;20672;-69
2023/11/29 11:25:11;;;;;;;3.75;1.73;;;;;;;2.39;73.63;95517.50;2082665;28;20224;-69
2023/11/29 11:26:13;;;;;;;9.15;2.50;;;;;;;2.07;75.48;95527.03;2081091;28;20193;-70
2023/11/29 11:27:14;;;;;;;4.88;2.35;;;;;;;2.05;76.38;95517.66;2091776;28;20439;-69
2023/11/29 11:28:28;;;;;;;3.58;2.60;;;;;;;1.82;76.12;95500.31;2093847;28;20203;-70
2023/11/29 11:29:32;;;;;;;4.82;2.15;;;;;;;1.82;76.57;95513.16;2081775;28;20322;-70
2023/11/29 11:30:42;;;;;;;3.70;2.33;;;;;;;2.03;76.28;95514.28;2075726;28;20300;-70
2023/11/29 11:31:43;;;;;;;3.00;2.17;;;;;;;2.61;100.00;72660.72;2066271;28;20236;-70
2023/11/29 11:32:49;;;;;;;4.18;2.30;;;;;;;2.61;75.47;95512.50;2072502;28;20202;-70
2023/11/29 11:33:51;;;;;;;3.47;2.17;;;;;;;4.67;70.63;95512.22;2073383;28;20716;-71
2023/11/29 11:34:53;;;;;;;3.65;2.45;;;;;;;5.14;69.21;95503.44;2079418;28;21098;-71
2023/11/29 11:35:58;;;;;;;4.15;1.98;;;;;;;5.14;67.47;95493.09;2080031;28;20279;-71
2023/11/29 11:37:00;;;;;;;2.97;2.20;;;;;;;5.81;66.59;95494.53;2073251;28;20220;-72
2023/11/29 11:38:09;;;;;;;3.63;2.45;;;;;;;5.89;65.68;95495.03;2075764;28;20232;-72
2023/11/29 11:39:11;;;;;;;3.67;2.20;;;;;;;5.97;66.00;95494.69;2076527;28;20612;-73
2023/11/29 11:40:14;;;;;;;3.15;1.83;;;;;;;5.79;65.43;95487.72;2074492;28;20860;-72
2023/11/29 11:41:16;;;;;;;3.00;1.88;;;;;;;5.35;65.75;95493.94;2074832;28;20201;-72
2023/11/29 11:42:17;;;;;;;4.32;2.15;;;;;;;5.39;65.77;95483.38;2074234;28;20775;-72
2023/11/29 11:43:19;;;;;;;3.85;2.17;;;;;;;5.50;66.02;95498.47;2075101;28;20197;-72
2023/11/29 11:44:21;;;;;;;3.15;2.10;;;;;;;5.19;65.87;95493.72;2072501;28;20205;-72
2023/11/29 11:45:24;;;;;;;3.30;1.90;;;;;;;5.51;65.88;95499.28;2073885;28;20271;-72
2023/11/29 11:46:27;;;;;;;6.78;2.20;;;;;;;5.02;66.40;95499.63;2071084;28;20289;-71
2023/11/29 11:47:30;;;;;;;4.25;2.30;;;;;;;5.44;66.39;95492.72;2073781;28;20247;-71
2023/11/29 11:48:32;;;;;;;3.80;2.30;;;;;;;6.02;65.44;95491.94;2077259;28;20197;-71
2023/11/29 11:49:34;;;;;;;3.33;2.30;;;;;;;5.78;65.45;95492.09;2076724;28;20327;-71
2023/11/29 11:50:40;;;;;;;4.30;2.70;;;;;;;5.58;66.21;95482.59;2075322;28;20194;-71
2023/11/29 11:51:41;;;;;;;5.88;1.90;;;;;;;5.58;65.29;95486.94;2075000;28;20288;-71
2023/11/29 11:52:43;;;;;;;4.32;1.95;;;;;;;5.41;65.77;95488.50;2076706;28;20198;-70
2023/11/29 11:53:45;;;;;;;10.25;2.67;;;;;;;5.23;66.35;95485.78;2076953;28;20852;-71
2023/11/29 11:54:47;;;;;;;3.30;2.00;;;;;;;4.79;67.91;95492.81;2076169;28;20197;-70
2023/11/29 11:55:49;;;;;;;4.78;2.17;;;;;;;4.76;68.58;95492.91;2075026;28;20254;-70
2023/11/29 11:56:58;;;;;;;4.75;2.35;;;;;;;4.38;67.63;95489.19;2075022;28;20852;-71
2023/11/29 11:58:03;;;;;;;3.90;2.15;;;;;;;4.53;68.96;95486.91;2075073;28;20650;-70
2023/11/29 11:59:07;;;;;;;7.15;1.90;;;;;;;4.67;68.80;95489.78;2074634;28;20288;-70
2023/11/29 12:00:10;;;;;;;4.07;2.35;;;;;;;4.30;70.00;95474.88;2072493;28;20570;-71
2023/11/29 12:01:12;;;;;;;3.85;2.20;;;;;;;3.87;70.13;95469.56;2074254;28;20218;-70
2023/11/29 12:02:13;;;;;;;4.93;2.00;;;;;;;3.34;71.38;95484.34;2075121;28;20220;-70
2023/11/29 12:03:16;;;;;;;4.45;2.40;;;;;;;2.55;73.14;95444.84;2075768;28;20232;-70
2023/11/29 12:04:17;;;;;;;4.65;2.70;;;;;;;2.55;76.49;95444.84;2075364;28;20912;-70
2023/11/29 12:05:19;;;;;;;4.63;2.53;;;;;;;2.17;76.52;95483.81;2071275;28;20278;-69
2023/11/29 12:06:21;;;;;;;4.28;2.30;;;;;;;1.90;77.23;95482.88;2071880;28;20686;-69
2023/11/29 12:07:23;;;;;;;4.20;2.30;;;;;;;1.62;78.24;95476.78;2074032;28;20235;-69
2023/11/29 12:08:25;;;;;;;6.18;3.50;;;;;;;1.60;79.89;95470.00;2075173;28;20201;-69
2023/11/29 12:09:27;;;;;;;5.22;2.17;;;;;;;1.55;80.22;95477.00;2070878;28;20198;-70
2023/11/29 12:10:30;;;;;;;3.63;2.28;;;;;;;1.52;80.23;95471.94;2074242;28;20201;-69
2023/11/29 12:11:32;;;;;;;4.43;2.78;;;;;;;1.39;81.28;95479.16;2070858;28;20203;-69
2023/11/29 12:12:37;;;;;;;3.45;2.30;;;;;;;1.35;81.23;95469.84;2075266;28;20225;-65
2023/11/29 12:13:39;;;;;;;3.88;2.50;;;;;;;1.41;81.62;95470.53;2075648;28;20289;-64
2023/11/29 12:14:46;;;;;;;4.00;2.45;;;;;;;1.46;81.18;95471.25;2073788;28;20202;-65
2023/11/29 12:15:48;;;;;;;3.70;2.15;;;;;;;1.52;81.14;95471.94;2074099;28;20194;-64
2023/11/29 12:16:52;;;;;;;4.20;2.80;;;;;;;1.50;81.51;95474.56;2089048;28;20225;-69
2023/11/29 12:17:54;;;;;;;5.22;3.42;;;;;;;1.39;81.59;95474.03;2089487;28;20215;-69
2023/11/29 12:18:56;;;;;;;4.80;2.67;;;;;;;1.30;81.52;95469.97;2073378;28;20229;-69
2023/11/29 12:19:57;;;;;;;11.95;3.38;;;;;;;1.27;82.05;95467.47;2071751;28;20376;-69
2023/11/29 12:20:59;;;;;;;4.90;2.42;;;;;;;1.28;82.42;95476.88;2072677;28;20198;-69
2023/11/29 12:22:04;;;;;;;5.40;2.53;;;;;;;1.24;82.98;95472.69;2068401;28;20225;-69
2023/11/29 12:23:06;;;;;;;4.88;2.50;;;;;;;1.26;82.17;95476.09;2073859;28;20203;-69
2023/11/29 12:24:08;;;;;;;3.88;2.33;;;;;;;1.19;80.95;95482.25;2075827;28;20198;-69
2023/11/29 12:25:14;;;;;;;4.63;2.40;;;;;;;1.27;81.25;95482.88;2075883;28;20197;-69
2023/11/29 12:26:16;;;;;;;4.40;2.42;;;;;;;1.29;81.72;95476.00;2075931;28;20189;-69
2023/11/29 12:27:18;;;;;;;4.15;2.38;;;;;;;1.34;82.52;95476.72;2076864;28;20229;-69
2023/11/29 12:28:24;;;;;;;4.35;2.65;;;;;;;1.26;82.16;95482.06;2079434;28;20223;-69
2023/11/29 12:29:26;;;;;;;3.60;2.30;;;;;;;1.18;82.53;95475.44;2074531;28;20284;-69
2023/11/29 12:30:27;;;;;;;4.03;2.65;;;;;;;1.14;82.55;95475.53;2076836;28;20259;-69
2023/11/29 12:31:36;;;;;;;4.95;2.83;;;;;;;1.21;82.92;95483.91;2074293;28;20763;-68
2023/11/29 12:32:39;;;;;;;8.15;4.70;;;;;;;1.03;82.74;95486.94;2075948;28;20190;-69
2023/11/29 12:33:40;;;;;;;8.10;3.80;;;;;;;1.06;83.10;95474.03;2074157;28;20201;-69
2023/11/29 12:34:43;;;;;;;5.72;3.10;;;;;;;1.03;83.81;95471.53;2074592;28;20256;-69
2023/11/29 12:35:44;;;;;;;7.80;3.35;;;;;;;1.14;83.97;95472.94;2074264;28;20232;-64
2023/11/29 12:36:46;;;;;;;6.20;2.40;;;;;;;0.98;82.74;95476.81;2074452;28;20312;-63
2023/11/29 12:37:47;;;;;;;14.80;2.90;;;;;;;0.90;83.25;95468.44;2075646;28;20190;-63
2023/11/29 12:38:50;;;;;;;6.68;2.28;;;;;;;0.89;84.04;95475.31;2075327;28;20244;-62
2023/11/29 12:39:57;;;;;;;3.33;1.90;;;;;;;0.89;84.03;95470.16;2075553;28;20205;-62
2023/11/29 12:40:59;;;;;;;4.47;1.95;;;;;;;0.85;83.81;95460.00;2084961;28;20680;-67
2023/11/29 12:42:05;;;;;;;4.57;2.60;;;;;;;0.78;83.81;95460.13;2089706;28;20242;-67
2023/11/29 12:43:07;;;;;;;7.38;2.65;;;;;;;0.77;84.70;95473.88;2075522;28;20200;-66
2023/11/29 12:44:09;;;;;;;5.00;2.83;;;;;;;0.76;84.78;95473.91;2076001;28;20809;-67
2023/11/29 12:45:14;;;;;;;4.57;2.03;;;;;;;0.76;84.75;95473.91;2072475;28;20217;-67
2023/11/29 12:46:16;;;;;;;3.83;2.50;;;;;;;-145.49;84.73;73645.19;2072524;28;20202;-66
2023/11/29 12:47:22;;;;;;;4.50;2.80;;;;;;;0.69;84.73;95465.53;2073218;28;20225;-67
2023/11/29 12:48:25;;;;;;;3.22;2.30;;;;;;;0.59;84.53;95469.19;2074192;28;20206;-67
2023/11/29 12:49:28;;;;;;;5.22;2.75;;;;;;;0.59;84.53;95469.19;2072663;28;20557;-66
2023/11/29 12:50:30;;;;;;;4.38;2.42;;;;;;;0.59;84.84;95469.19;2075238;28;20208;-66
2023/11/29 12:51:31;;;;;;;4.68;2.85;;;;;;;0.57;85.24;95465.81;2074650;28;20201;-66
2023/11/29 12:52:34;;;;;;;4.90;2.55;;;;;;;0.57;85.24;95465.81;2075522;28;20254;-67
2023/11/29 12:53:37;;;;;;;5.38;2.28;;;;;;;0.50;85.34;95461.72;2076301;28;20193;-66
2023/11/29 12:54:39;;;;;;;5.47;2.88;;;;;;;0.50;85.34;95466.84;2075406;28;20205;-66
2023/11/29 12:55:40;;;;;;;5.80;2.60;;;;;;;0.48;85.07;95459.16;2075118;28;20193;-66
2023/11/29 12:56:42;;;;;;;5.40;2.97;;;;;;;0.45;85.42;95459.25;2074055;28;20224;-66
2023/11/29 12:57:43;;;;;;;5.13;2.47;;;;;;;0.52;85.44;95459.94;2077707;28;20201;-66
2023/11/29 12:58:45;;;;;;;6.45;2.85;;;;;;;0.48;85.66;95461.72;2073550;28;20199;-67
2023/11/29 12:59:46;;;;;;;9.00;3.17;;;;;;;0.43;85.99;95455.88;2074488;28;20788;-66
2023/11/29 13:00:48;;;;;;;7.35;2.97;;;;;;;0.43;85.99;95455.88;2072891;28;20201;-66
2023/11/29 13:01:52;;;;;;;5.28;2.90;;;;;;;0.48;86.29;95464.31;2074855;28;20276;-67
2023/11/29 13:02:54;;;;;;;5.65;3.22;;;;;;;0.41;86.04;95447.38;2073996;28;20208;-66
2023/11/29 13:03:55;;;;;;;5.90;3.40;;;;;;;0.45;86.27;95460.09;2070615;28;20212;-66
2023/11/29 13:04:59;;;;;;;4.38;2.75;;;;;;;0.48;86.22;95460.03;2071994;28;20202;-66
2023/11/29 13:06:01;;;;;;;5.68;2.80;;;;;;;0.47;86.19;95466.03;2091069;28;20199;-66
2023/11/29 13:07:02;;;;;;;4.70;2.60;;;;;;;0.47;86.19;95466.03;2086818;28;20251;-67
2023/11/29 13:08:04;;;;;;;4.70;2.28;;;;;;;0.48;86.12;95454.88;2074759;28;20205;-66
2023/11/29 13:09:05;;;;;;;5.20;2.70;;;;;;;0.46;87.15;95458.38;2074861;28;20480;-66
2023/11/29 13:10:07;;;;;;;4.95;3.00;;;;;;;0.46;87.10;95466.09;2076885;28;20209;-66
2023/11/29 13:11:09;;;;;;;4.00;2.55;;;;;;;0.50;86.24;95454.84;2072430;28;20229;-66
2023/11/29 13:12:10;;;;;;;3.80;2.30;;;;;;;0.50;86.24;95454.84;2075081;28;20251;-66
2023/11/29 13:13:12;;;;;;;3.63;2.47;;;;;;;0.48;86.94;95454.88;2087645;28;20196;-66
2023/11/29 13:14:14;;;;;;;6.40;2.50;;;;;;;0.48;86.94;95454.88;2081306;28;20207;-66
2023/11/29 13:15:16;;;;;;;5.13;2.30;;;;;;;0.41;86.81;95455.91;2074237;28;20220;-67
2023/11/29 13:16:17;;;;;;;3.88;2.47;;;;;;;0.44;87.69;95449.84;2075281;28;20193;-66
2023/11/29 13:17:20;;;;;;;4.13;2.22;;;;;;;0.46;87.47;95448.94;2074449;28;20695;-67
2023/11/29 13:18:22;;;;;;;3.65;2.25;;;;;;;0.61;87.09;95452.00;2076232;28;20821;-66
2023/11/29 13:19:24;;;;;;;4.20;2.50;;;;;;;0.56;87.23;95449.56;2075203;28;20296;-66
2023/11/29 13:20:26;;;;;;;3.85;2.60;;;;;;;0.56;87.23;95449.56;2076773;28;20262;-66
2023/11/29 13:21:32;;;;;;;3.92;2.50;;;;;;;0.59;86.25;95458.91;2072982;28;20292;-65
2023/11/29 13:22:34;;;;;;;3.10;2.30;;;;;;;0.53;86.45;95451.34;2075253;28;20611;-66
2023/11/29 13:23:36;;;;;;;3.65;2.28;;;;;;;0.53;87.00;95448.78;2075287;28;20221;-66
2023/11/29 13:24:38;;;;;;;4.00;2.40;;;;;;;0.65;87.11;95457.03;2076498;28;20204;-66
2023/11/29 13:25:40;;;;;;;3.03;2.33;;;;;;;0.65;87.11;95457.03;2076329;28;20231;-66
2023/11/29 13:26:41;;;;;;;6.90;2.85;;;;;;;0.71;86.65;95463.78;2074874;28;20482;-66
2023/11/29 13:27:43;;;;;;;4.15;2.35;;;;;;;0.72;85.93;95460.28;2077371;28;20234;-67
2023/11/29 13:28:44;;;;;;;5.00;2.60;;;;;;;0.76;86.37;95450.78;2074211;28;20205;-66
2023/11/29 13:29:46;;;;;;;4.07;2.45;;;;;;;0.80;86.13;95453.25;2074893;28;20205;-66
2023/11/29 13:30:48;;;;;;;12.95;5.93;;;;;;;0.88;86.00;95447.06;2076951;28;20693;-63
2023/11/29 13:31:50;;;;;;;3.58;2.53;;;;;;;0.96;86.08;95458.00;2076494;28;20221;-62
2023/11/29 13:32:51;;;;;;;8.13;4.55;;;;;;;0.86;85.57;95456.53;2076098;28;20239;-65
2023/11/29 13:33:53;;;;;;;3.30;2.50;;;;;;;0.90;84.77;95437.59;2074422;28;20278;-64
2023/11/29 13:34:56;;;;;;;6.43;2.40;;;;;;;1.06;85.05;95448.31;2072234;28;20664;-64
2023/11/29 13:35:58;;;;;;;4.22;2.67;;;;;;;1.10;85.57;95455.06;2075365;28;20806;-64
2023/11/29 13:37:00;;;;;;;9.02;3.22;;;;;;;1.09;84.92;95464.53;2075934;28;20304;-64
2023/11/29 13:38:12;;;;;;;7.85;4.10;;;;;;;1.17;84.87;95458.31;2077323;28;20287;-64
2023/11/29 13:44:09;;;;;;;9.38;2.80;;;;;;;1.12;85.02;95459.28;2099095;27;20907;-65
2023/11/29 13:45:11;;;;;;;5.53;3.55;;;;;;;1.17;84.95;95456.59;2096362;28;20291;-65
2023/11/29 13:46:12;;;;;;;5.55;3.08;;;;;;;1.14;84.83;95457.53;2096027;28;20197;-66
2023/11/29 13:53:06;;;;;;;6.22;2.95;;;;;;;1.11;86.32;95447.28;2091113;27;20550;-65
2023/11/29 13:54:07;;;;;;;5.22;2.40;;;;;;;1.08;85.69;95457.69;2090961;28;20199;-65
